createdAt,value
2019-04-14T00:01:52.626Z,37.80
2019-04-14T00:04:29.003Z,37.71
2019-04-14T00:07:01.542Z,37.98
2019-04-14T00:09:33.966Z,38.17
2019-04-14T00:12:07.945Z,37.80
2019-04-14T00:14:40.430Z,37.78
2019-04-14T00:17:13.501Z,38.11
2019-04-14T00:19:45.725Z,38.32
2019-04-14T00:22:18.379Z,38.34
2019-04-14T00:24:51.099Z,38.20
2019-04-14T00:27:23.614Z,38.55
2019-04-14T00:29:56.811Z,38.85
2019-04-14T00:32:31.282Z,38.71
2019-04-14T00:35:13.043Z,38.83
2019-04-14T00:38:06.548Z,38.70
2019-04-14T00:40:45.430Z,38.59
2019-04-14T00:43:37.788Z,38.37
2019-04-14T00:46:16.928Z,38.61
2019-04-14T00:48:49.770Z,38.66
2019-04-14T00:51:22.149Z,38.56
2019-04-14T00:53:53.893Z,38.92
2019-04-14T00:56:26.196Z,38.97
2019-04-14T00:58:58.279Z,38.54
2019-04-14T01:01:30.846Z,38.82
2019-04-14T01:04:03.450Z,38.37
2019-04-14T01:06:36.117Z,38.42
2019-04-14T01:09:11.291Z,38.34
2019-04-14T01:11:44.346Z,38.49
2019-04-14T01:14:16.933Z,38.45
2019-04-14T01:16:49.532Z,38.79
2019-04-14T01:19:22.025Z,38.78
2019-04-14T01:21:54.576Z,38.65
2019-04-14T01:24:27.500Z,38.80
2019-04-14T01:26:59.777Z,39.11
2019-04-14T01:29:31.972Z,39.07
2019-04-14T01:32:04.532Z,39.04
2019-04-14T01:34:37.101Z,39.03
2019-04-14T01:37:09.407Z,39.33
2019-04-14T01:39:41.720Z,39.45
2019-04-14T01:42:14.035Z,39.51
2019-04-14T01:44:46.060Z,39.30
2019-04-14T01:47:18.272Z,39.78
2019-04-14T01:49:50.861Z,39.54
2019-04-14T01:52:40.668Z,39.70
2019-04-14T01:55:35.473Z,39.61
2019-04-14T01:58:16.703Z,39.45
2019-04-14T02:01:08.415Z,39.29
2019-04-14T02:03:40.965Z,39.87
2019-04-14T02:06:13.609Z,39.52
2019-04-14T02:08:45.976Z,39.53
2019-04-14T02:11:20.474Z,39.67
2019-04-14T02:13:52.977Z,39.61
2019-04-14T02:16:33.013Z,40.08
2019-04-14T02:18:58.754Z,39.96
2019-04-14T02:21:30.579Z,40.37
2019-04-14T02:24:02.683Z,39.91
2019-04-14T02:26:35.154Z,39.78
2019-04-14T02:29:07.963Z,40.02
2019-04-14T02:32:09.943Z,39.93
2019-04-14T02:34:39.158Z,40.02
2019-04-14T02:37:26.423Z,40.05
2019-04-14T02:40:01.321Z,40.10
2019-04-14T02:44:59.922Z,40.14
2019-04-14T02:47:45.475Z,40.33
2019-04-14T02:52:35.362Z,40.57
2019-04-14T02:55:05.211Z,40.28
2019-04-14T03:00:32.603Z,40.64
2019-04-14T03:02:48.788Z,40.77
2019-04-14T03:05:27.073Z,40.67
2019-04-14T03:07:59.897Z,40.88
2019-04-14T03:10:34.043Z,40.78
2019-04-14T03:13:15.531Z,40.92
2019-04-14T03:15:39.725Z,40.83
2019-04-14T03:21:19.564Z,41.14
2019-04-14T03:26:49.502Z,41.25
2019-04-14T03:29:21.377Z,41.13
2019-04-14T03:34:52.279Z,41.29
2019-04-14T03:39:41.969Z,41.24
2019-04-14T03:42:13.142Z,41.33
2019-04-14T03:44:56.407Z,41.40
2019-04-14T03:47:22.065Z,41.54
2019-04-14T03:49:56.437Z,41.40
2019-04-14T03:52:35.041Z,41.57
2019-04-14T03:54:50.172Z,41.58
2019-04-14T03:57:06.330Z,41.79
2019-04-14T03:59:39.142Z,41.85
2019-04-14T04:02:11.826Z,42.05
2019-04-14T04:04:44.518Z,42.34
2019-04-14T04:07:17.092Z,42.19
2019-04-14T04:09:54.745Z,42.15
2019-04-14T04:12:27.272Z,42.51
2019-04-14T04:15:00.377Z,42.38
2019-04-14T04:17:47.999Z,42.67
2019-04-14T04:20:45.585Z,42.59
2019-04-14T04:23:42.634Z,42.40
2019-04-14T04:26:23.406Z,42.90
2019-04-14T04:29:02.763Z,42.65
2019-04-14T04:31:52.660Z,42.50
2019-04-14T04:34:33.841Z,42.48
2019-04-14T04:37:43.338Z,42.37
2019-04-14T04:40:22.339Z,42.79
2019-04-14T04:42:54.846Z,42.54
2019-04-14T04:45:27.797Z,42.69
2019-04-14T04:48:00.254Z,42.68
2019-04-14T04:50:32.696Z,42.95
2019-04-14T04:53:04.873Z,43.06
2019-04-14T04:55:37.400Z,43.34
2019-04-14T04:58:10.057Z,42.79
2019-04-14T05:00:42.095Z,42.93
2019-04-14T05:03:14.630Z,42.95
2019-04-14T05:06:48.236Z,42.54
2019-04-14T05:09:29.985Z,42.53
2019-04-14T05:12:24.286Z,42.47
2019-04-14T05:15:21.107Z,43.09
2019-04-14T05:17:53.776Z,42.65
2019-04-14T05:20:27.020Z,42.50
2019-04-14T05:22:59.552Z,42.13
2019-04-14T05:25:31.826Z,42.17
2019-04-14T05:28:04.795Z,42.24
2019-04-14T05:30:37.153Z,42.20
2019-04-14T05:33:09.641Z,41.73
2019-04-14T05:35:42.345Z,41.59
2019-04-14T05:38:14.830Z,41.45
2019-04-14T05:40:47.511Z,41.56
2019-04-14T05:43:31.865Z,41.27
2019-04-14T05:45:54.401Z,41.12
2019-04-14T05:48:27.239Z,41.14
2019-04-14T05:50:59.866Z,41.05
2019-04-14T05:53:32.666Z,40.96
2019-04-14T05:56:05.725Z,41.27
2019-04-14T05:58:38.311Z,40.16
2019-04-14T06:01:11.360Z,40.49
2019-04-14T06:03:43.471Z,40.06
2019-04-14T06:06:15.225Z,39.76
2019-04-14T06:08:47.705Z,39.56
2019-04-14T06:11:19.474Z,39.57
2019-04-14T06:13:51.644Z,39.03
2019-04-14T06:16:23.427Z,38.96
2019-04-14T06:18:55.455Z,38.67
2019-04-14T06:21:27.233Z,38.02
2019-04-14T06:23:59.588Z,38.60
2019-04-14T06:26:31.393Z,38.02
2019-04-14T06:29:03.586Z,38.23
2019-04-14T06:31:55.653Z,37.84
2019-04-14T06:34:46.673Z,37.49
2019-04-14T06:37:29.870Z,37.58
2019-04-14T06:40:02.541Z,37.51
2019-04-14T06:42:34.376Z,37.26
2019-04-14T06:45:07.091Z,36.69
2019-04-14T06:47:39.324Z,37.22
2019-04-14T06:50:12.791Z,36.64
2019-04-14T06:52:44.540Z,36.34
2019-04-14T06:55:17.121Z,35.62
2019-04-14T06:57:48.919Z,35.13
2019-04-14T07:00:21.053Z,35.26
2019-04-14T07:02:52.881Z,35.35
2019-04-14T07:05:24.966Z,34.99
2019-04-14T07:07:57.574Z,35.17
2019-04-14T07:10:29.923Z,34.84
2019-04-14T07:13:01.801Z,34.72
2019-04-14T07:15:33.848Z,33.94
2019-04-14T07:18:05.770Z,34.05
2019-04-14T07:20:37.893Z,33.96
2019-04-14T07:23:09.689Z,33.98
2019-04-14T07:25:41.962Z,33.59
2019-04-14T07:28:13.815Z,33.34
2019-04-14T07:31:16.139Z,32.62
2019-04-14T07:33:58.941Z,32.14
2019-04-14T07:36:49.917Z,33.00
2019-04-14T07:39:46.950Z,32.12
2019-04-14T07:42:31.587Z,31.98
2019-04-14T07:45:08.792Z,31.20
2019-04-14T07:47:53.123Z,30.89
2019-04-14T07:50:55.921Z,30.29
2019-04-14T07:53:33.696Z,29.87
2019-04-14T07:56:13.939Z,30.04
2019-04-14T07:59:14.401Z,29.93
2019-04-14T08:02:13.969Z,30.70
2019-04-14T08:04:50.820Z,30.97
2019-04-14T08:07:22.672Z,31.17
2019-04-14T08:09:54.850Z,30.03
2019-04-14T08:12:26.865Z,29.24
2019-04-14T08:14:59.155Z,28.86
2019-04-14T08:17:31.055Z,29.14
2019-04-14T08:20:03.146Z,28.58
2019-04-14T08:22:35.205Z,28.80
2019-04-14T08:25:07.978Z,28.18
2019-04-14T08:27:39.954Z,28.25
2019-04-14T08:30:13.299Z,27.91
2019-04-14T08:32:45.136Z,27.51
2019-04-14T08:35:17.131Z,27.27
2019-04-14T08:37:49.185Z,27.74
2019-04-14T08:40:21.458Z,26.37
2019-04-14T08:43:13.299Z,26.62
2019-04-14T08:45:56.106Z,26.15
2019-04-14T08:48:45.627Z,26.68
2019-04-14T08:51:36.480Z,26.57
2019-04-14T08:54:20.177Z,26.03
2019-04-14T08:56:58.582Z,25.96
2019-04-14T08:59:41.952Z,25.54
2019-04-14T09:02:32.943Z,25.33
2019-04-14T09:05:26.753Z,25.27
2019-04-14T09:08:10.612Z,25.24
2019-04-14T09:10:45.486Z,24.85
2019-04-14T09:13:18.197Z,25.29
2019-04-14T09:15:50.468Z,25.03
2019-04-14T09:18:22.775Z,25.15
2019-04-14T09:20:54.754Z,23.68
2019-04-14T09:23:27.927Z,24.55
2019-04-14T09:25:59.929Z,24.58
2019-04-14T09:28:32.084Z,24.88
2019-04-14T09:31:04.577Z,24.32
2019-04-14T09:33:38.392Z,24.58
2019-04-14T09:36:10.291Z,24.37
2019-04-14T09:38:42.282Z,24.09
2019-04-14T09:41:14.216Z,24.36
2019-04-14T09:43:46.532Z,23.97
2019-04-14T09:46:18.899Z,23.98
2019-04-14T09:48:51.059Z,23.76
2019-04-14T09:51:22.907Z,24.06
2019-04-14T09:53:54.827Z,22.92
2019-04-14T09:56:26.607Z,23.42
2019-04-14T09:58:59.012Z,23.34
2019-04-14T10:01:31.300Z,24.09
2019-04-14T10:04:03.545Z,24.12
2019-04-14T10:06:35.367Z,23.63
2019-04-14T10:09:08.686Z,23.02
2019-04-14T10:11:48.389Z,22.78
2019-04-14T10:14:14.599Z,22.92
2019-04-14T10:16:46.718Z,23.68
2019-04-14T10:19:18.811Z,23.23
2019-04-14T10:21:50.714Z,23.25
2019-04-14T10:24:22.836Z,23.03
2019-04-14T10:26:54.730Z,23.17
2019-04-14T10:29:26.854Z,23.42
2019-04-14T10:31:59.021Z,23.18
2019-04-14T10:34:31.101Z,22.33
2019-04-14T10:37:03.063Z,22.72
2019-04-14T10:39:35.225Z,23.71
2019-04-14T10:42:07.121Z,22.75
2019-04-14T10:44:39.160Z,21.89
2019-04-14T10:47:11.076Z,22.34
2019-04-14T10:49:43.384Z,22.65
2019-04-14T10:52:15.220Z,22.61
2019-04-14T10:54:47.458Z,23.51
2019-04-14T10:57:19.341Z,23.22
2019-04-14T10:59:52.206Z,22.28
2019-04-14T11:02:24.381Z,22.55
2019-04-14T11:04:56.564Z,21.60
2019-04-14T11:07:30.986Z,21.38
2019-04-14T11:10:03.147Z,21.70
2019-04-14T11:12:35.182Z,21.53
2019-04-14T11:15:11.049Z,20.71
2019-04-14T11:17:43.419Z,20.37
2019-04-14T11:20:15.818Z,20.74
2019-04-14T11:22:47.797Z,20.65
2019-04-14T11:25:20.439Z,20.78
2019-04-14T11:27:52.322Z,20.31
2019-04-14T11:30:25.273Z,20.48
2019-04-14T11:33:08.774Z,20.83
2019-04-14T11:35:56.343Z,21.51
2019-04-14T11:38:34.127Z,21.52
2019-04-14T11:41:10.713Z,21.48
2019-04-14T11:43:43.813Z,20.99
2019-04-14T11:46:16.183Z,21.19
2019-04-14T11:48:48.321Z,21.23
2019-04-14T11:51:20.605Z,21.38
2019-04-14T11:53:52.504Z,20.78
2019-04-14T11:56:24.727Z,20.97
2019-04-14T11:58:56.629Z,20.98
2019-04-14T12:01:50.840Z,20.52
2019-04-14T12:04:33.201Z,20.11
2019-04-14T12:07:33.396Z,20.03
2019-04-14T12:10:16.611Z,20.12
2019-04-14T12:12:48.805Z,20.08
2019-04-14T12:15:20.680Z,20.32
2019-04-14T12:17:52.749Z,19.98
2019-04-14T12:20:24.570Z,19.24
2019-04-14T12:22:56.752Z,19.26
2019-04-14T12:25:28.553Z,18.25
2019-04-14T12:28:00.909Z,18.51
2019-04-14T12:30:33.540Z,17.38
2019-04-14T12:33:06.130Z,17.46
2019-04-14T12:35:38.124Z,16.73
2019-04-14T12:38:10.517Z,16.71
2019-04-14T12:40:43.017Z,15.51
2019-04-14T12:43:40.251Z,14.23
2019-04-14T12:46:43.077Z,13.26
2019-04-14T12:49:18.868Z,12.51
2019-04-14T12:52:20.322Z,10.96
2019-04-14T12:54:42.048Z,10.10
2019-04-14T12:57:15.250Z,9.43
2019-04-14T12:59:47.413Z,9.34
2019-04-14T13:02:24.570Z,10.16
2019-04-14T13:04:57.169Z,9.45
2019-04-14T13:07:29.555Z,8.65
2019-04-14T13:10:01.803Z,8.22
2019-04-14T13:12:33.827Z,7.44
2019-04-14T13:15:10.672Z,7.01
2019-04-14T13:17:42.523Z,6.32
2019-04-14T13:20:15.170Z,6.27
2019-04-14T13:22:47.005Z,5.61
2019-04-14T13:25:19.250Z,6.03
2019-04-14T13:27:51.959Z,5.45
2019-04-14T13:30:28.899Z,5.47
2019-04-14T13:33:00.803Z,4.99
2019-04-14T13:35:33.344Z,4.74
2019-04-14T13:38:05.352Z,5.26
2019-04-14T13:40:37.550Z,4.94
2019-04-14T13:43:09.705Z,5.62
2019-04-14T13:45:42.119Z,5.53
2019-04-14T13:48:14.303Z,5.04
2019-04-14T13:50:46.973Z,5.05
2019-04-14T13:53:18.828Z,4.77
2019-04-14T13:55:51.099Z,4.31
2019-04-14T13:58:22.933Z,4.01
2019-04-14T14:00:55.123Z,3.75
2019-04-14T14:03:26.958Z,3.87
2019-04-14T14:05:59.475Z,3.59
2019-04-14T14:08:31.335Z,3.58
2019-04-14T14:11:13.115Z,3.08
2019-04-14T14:13:53.463Z,3.05
2019-04-14T14:16:43.071Z,2.88
2019-04-14T14:19:20.996Z,2.98
2019-04-14T14:21:59.879Z,3.82
2019-04-14T14:24:35.366Z,3.33
2019-04-14T14:27:08.628Z,3.20
2019-04-14T14:29:40.481Z,3.37
2019-04-14T14:32:32.930Z,3.12
2019-04-14T14:35:05.302Z,3.80
2019-04-14T14:37:37.454Z,3.41
2019-04-14T14:40:09.944Z,3.65
2019-04-14T14:42:42.097Z,5.81
2019-04-14T14:45:31.900Z,4.77
2019-04-14T14:48:15.021Z,4.41
2019-04-14T14:50:51.472Z,4.70
2019-04-14T14:53:23.983Z,4.93
2019-04-14T14:55:55.983Z,4.56
2019-04-14T14:58:28.194Z,4.03
2019-04-14T15:01:00.034Z,3.71
2019-04-14T15:03:32.134Z,3.31
2019-04-14T15:06:04.499Z,3.60
2019-04-14T15:08:37.190Z,4.03
2019-04-14T15:11:09.052Z,4.65
2019-04-14T15:13:42.320Z,4.08
2019-04-14T15:16:14.376Z,3.77
2019-04-14T15:18:47.798Z,3.47
2019-04-14T15:21:19.773Z,3.62
2019-04-14T15:23:52.002Z,3.26
2019-04-14T15:26:23.871Z,3.41
2019-04-14T15:28:55.997Z,3.43
2019-04-14T15:31:29.438Z,3.48
2019-04-14T15:34:01.728Z,4.36
2019-04-14T15:36:33.677Z,4.40
2019-04-14T15:39:08.002Z,4.09
2019-04-14T15:41:40.116Z,4.32
2019-04-14T15:44:12.145Z,3.95
2019-04-14T15:46:44.077Z,3.73
2019-04-14T15:49:16.260Z,3.92
2019-04-14T15:51:48.346Z,4.09
2019-04-14T15:54:20.740Z,4.23
2019-04-14T15:57:01.263Z,4.24
2019-04-14T15:59:44.251Z,4.38
2019-04-14T16:02:35.083Z,4.68
2019-04-14T16:05:35.818Z,4.48
2019-04-14T16:08:21.904Z,4.84
2019-04-14T16:11:08.676Z,4.79
2019-04-14T16:14:05.550Z,5.22
2019-04-14T16:16:56.419Z,5.95
2019-04-14T16:19:43.203Z,7.50
2019-04-14T16:22:15.483Z,9.60
2019-04-14T16:24:48.382Z,10.96
2019-04-14T16:27:38.279Z,11.78
2019-04-14T16:30:18.937Z,12.59
2019-04-14T16:33:22.214Z,12.69
2019-04-14T16:35:55.016Z,12.69
2019-04-14T16:38:27.083Z,13.51
2019-04-14T16:40:59.360Z,14.52
2019-04-14T16:43:31.484Z,15.69
2019-04-14T16:46:03.672Z,17.02
2019-04-14T16:48:35.850Z,17.37
2019-04-14T16:51:09.475Z,17.74
2019-04-14T16:53:43.394Z,18.19
2019-04-14T16:56:44.349Z,18.29
2019-04-14T16:59:17.549Z,18.69
2019-04-14T17:01:50.297Z,19.37
2019-04-14T17:04:22.663Z,19.50
2019-04-14T17:06:54.820Z,19.94
2019-04-14T17:09:27.287Z,20.47
2019-04-14T17:11:59.573Z,21.03
2019-04-14T17:14:40.066Z,21.21
2019-04-14T17:17:29.624Z,21.37
2019-04-14T17:20:26.888Z,22.07
2019-04-14T17:23:36.152Z,21.97
2019-04-14T17:26:12.802Z,22.49
2019-04-14T17:29:00.184Z,22.47
2019-04-14T17:31:43.898Z,22.38
2019-04-14T17:34:21.591Z,22.60
2019-04-14T17:37:11.493Z,22.78
2019-04-14T17:40:05.675Z,22.75
2019-04-14T17:42:47.011Z,23.41
2019-04-14T17:45:29.730Z,23.83
2019-04-14T17:48:24.331Z,24.43
2019-04-14T17:51:10.108Z,24.57
2019-04-14T17:54:07.219Z,25.17
2019-04-14T17:56:47.359Z,25.06
2019-04-14T17:59:48.289Z,25.43
2019-04-14T18:02:25.828Z,25.26
2019-04-14T18:05:08.626Z,25.20
2019-04-14T18:07:52.168Z,25.71
2019-04-14T18:10:49.842Z,25.73
2019-04-14T18:13:37.340Z,25.83
2019-04-14T18:16:34.666Z,26.27
2019-04-14T18:19:30.645Z,26.45
2019-04-14T18:22:03.050Z,26.42
2019-04-14T18:24:42.336Z,26.30
2019-04-14T18:27:10.287Z,26.54
2019-04-14T18:29:51.506Z,26.49
2019-04-14T18:32:41.160Z,26.64
2019-04-14T18:35:31.141Z,26.66
2019-04-14T18:38:35.871Z,26.92
2019-04-14T18:41:23.373Z,27.10
2019-04-14T18:44:09.211Z,27.25
2019-04-14T18:47:10.414Z,27.27
2019-04-14T18:49:58.954Z,27.45
2019-04-14T18:52:49.038Z,27.52
2019-04-14T18:55:46.322Z,27.90
2019-04-14T18:58:37.116Z,27.22
2019-04-14T19:01:31.522Z,27.54
2019-04-14T19:04:04.589Z,27.38
2019-04-14T19:06:37.561Z,27.75
2019-04-14T19:09:11.038Z,28.15
2019-04-14T19:11:50.736Z,28.10
2019-04-14T19:14:48.510Z,28.16
2019-04-14T19:17:42.885Z,27.98
2019-04-14T19:20:17.639Z,28.41
2019-04-14T19:22:50.743Z,28.55
2019-04-14T19:25:24.075Z,28.86
2019-04-14T19:27:56.682Z,28.75
2019-04-14T19:30:30.205Z,28.66
2019-04-14T19:33:03.000Z,29.08
2019-04-14T19:35:36.787Z,29.02
2019-04-14T19:38:09.171Z,29.26
2019-04-14T19:40:42.439Z,29.52
2019-04-14T19:43:23.671Z,29.68
2019-04-14T19:45:49.528Z,29.95
2019-04-14T19:48:22.455Z,29.92
2019-04-14T19:50:55.835Z,30.16
2019-04-14T19:53:28.905Z,30.44
2019-04-14T19:56:02.463Z,30.49
2019-04-14T19:58:35.630Z,30.81
2019-04-14T20:01:10.080Z,30.66
2019-04-14T20:03:43.087Z,30.93
2019-04-14T20:06:15.821Z,30.82
2019-04-14T20:08:47.952Z,31.02
2019-04-14T20:11:20.805Z,31.18
2019-04-14T20:13:53.574Z,31.21
2019-04-14T20:16:57.117Z,31.57
2019-04-14T20:20:01.052Z,31.88
2019-04-14T20:22:52.446Z,31.70
2019-04-14T20:25:59.281Z,31.74
2019-04-14T20:28:56.487Z,31.79
2019-04-14T20:31:37.946Z,31.87
2019-04-14T20:34:10.606Z,31.99
2019-04-14T20:36:43.416Z,32.02
2019-04-14T20:39:17.472Z,31.99
2019-04-14T20:41:50.233Z,32.17
2019-04-14T20:44:22.871Z,31.94
2019-04-14T20:46:55.692Z,32.04
2019-04-14T20:49:28.386Z,32.39
2019-04-14T20:52:01.165Z,32.36
2019-04-14T20:54:34.191Z,32.57
2019-04-14T20:57:07.101Z,32.31
2019-04-14T20:59:39.943Z,32.35
2019-04-14T21:02:31.044Z,32.85
2019-04-14T21:05:11.462Z,32.97
2019-04-14T21:08:06.226Z,33.01
2019-04-14T21:10:44.067Z,33.04
2019-04-14T21:13:26.265Z,33.10
2019-04-14T21:16:20.588Z,33.20
2019-04-14T21:18:58.417Z,33.31
2019-04-14T21:21:58.841Z,33.29
2019-04-14T21:24:50.077Z,33.42
2019-04-14T21:27:56.822Z,33.93
2019-04-14T21:30:57.390Z,33.82
2019-04-14T21:33:52.157Z,33.99
2019-04-14T21:36:52.471Z,34.42
2019-04-14T21:39:56.926Z,34.40
2019-04-14T21:42:31.211Z,34.55
2019-04-14T21:45:04.827Z,34.59
2019-04-14T21:47:37.553Z,34.87
2019-04-14T21:50:10.752Z,35.14
2019-04-14T21:52:49.490Z,35.31
2019-04-14T21:55:22.162Z,35.33
2019-04-14T21:58:19.651Z,35.77
2019-04-14T22:01:53.716Z,35.90
2019-04-14T22:04:43.890Z,35.94
2019-04-14T22:07:42.024Z,36.03
2019-04-14T22:10:30.273Z,36.41
2019-04-14T22:13:03.159Z,36.47
2019-04-14T22:15:35.425Z,36.59
2019-04-14T22:18:08.339Z,36.50
2019-04-14T22:20:40.811Z,36.76
2019-04-14T22:23:13.836Z,37.13
2019-04-14T22:25:46.502Z,37.07
2019-04-14T22:28:19.363Z,37.31
2019-04-14T22:30:51.954Z,37.37
2019-04-14T22:33:24.676Z,37.63
2019-04-14T22:35:57.077Z,38.05
2019-04-14T22:38:29.290Z,38.57
2019-04-14T22:41:01.368Z,38.68
2019-04-14T22:43:33.949Z,38.55
2019-04-14T22:46:05.956Z,38.71
2019-04-14T22:48:39.573Z,39.09
2019-04-14T22:51:12.210Z,39.13
2019-04-14T22:53:44.629Z,39.51
2019-04-14T22:56:16.572Z,39.36
2019-04-14T22:58:49.707Z,39.18
2019-04-14T23:01:25.617Z,39.21
2019-04-14T23:04:19.115Z,39.32
2019-04-14T23:07:04.776Z,39.26
2019-04-14T23:10:05.018Z,39.68
2019-04-14T23:12:43.348Z,40.25
2019-04-14T23:15:32.817Z,40.08
2019-04-14T23:18:26.613Z,40.59
2019-04-14T23:21:16.690Z,40.69
2019-04-14T23:24:01.808Z,41.09
2019-04-14T23:26:35.260Z,41.06
2019-04-14T23:29:07.105Z,41.00
2019-04-14T23:31:40.288Z,41.48
2019-04-14T23:34:12.199Z,41.67
2019-04-14T23:36:44.525Z,41.97
2019-04-14T23:39:16.359Z,42.16
2019-04-14T23:41:48.447Z,42.08
2019-04-14T23:44:20.368Z,42.16
2019-04-14T23:46:52.577Z,42.54
2019-04-14T23:49:24.462Z,42.57
2019-04-14T23:51:56.527Z,42.67
2019-04-14T23:54:28.480Z,42.75
2019-04-14T23:57:06.130Z,42.99
2019-04-14T23:59:34.271Z,43.04
